createdAt,value
2022-11-12T00:00:03.036Z,80.00
2022-11-12T00:01:03.553Z,80.00
2022-11-12T00:02:02.306Z,80.00
2022-11-12T00:03:02.800Z,80.00
2022-11-12T00:04:02.720Z,80.00
2022-11-12T00:05:02.573Z,81.00
2022-11-12T00:06:02.450Z,80.00
2022-11-12T00:07:02.818Z,80.00
2022-11-12T00:08:02.841Z,80.00
2022-11-12T00:09:02.572Z,80.00
2022-11-12T00:10:02.889Z,80.00
2022-11-12T00:11:02.275Z,80.00
2022-11-12T00:12:01.800Z,80.00
2022-11-12T00:13:01.959Z,80.00
2022-11-12T00:14:02.055Z,80.00
2022-11-12T00:15:02.378Z,81.00
2022-11-12T00:16:02.166Z,81.00
2022-11-12T00:17:01.905Z,80.00
2022-11-12T00:18:02.389Z,80.00
2022-11-12T00:19:02.111Z,81.00
2022-11-12T00:20:02.454Z,80.00
2022-11-12T00:21:02.066Z,80.00
2022-11-12T00:22:03.148Z,80.00
2022-11-12T00:23:02.811Z,80.00
2022-11-12T00:24:02.549Z,80.00
2022-11-12T00:25:02.933Z,80.00
2022-11-12T00:26:03.079Z,81.00
2022-11-12T00:27:02.000Z,81.00
2022-11-12T00:28:02.233Z,81.00
2022-11-12T00:29:01.989Z,81.00
2022-11-12T00:30:02.492Z,81.00
2022-11-12T00:31:02.093Z,80.00
2022-11-12T00:32:02.432Z,80.00
2022-11-12T00:33:02.222Z,80.00
2022-11-12T00:34:02.656Z,80.00
2022-11-12T00:35:02.907Z,80.00
2022-11-12T00:36:02.516Z,80.00
2022-11-12T00:37:02.229Z,80.00
2022-11-12T00:38:02.243Z,80.00
2022-11-12T00:39:02.552Z,80.00
2022-11-12T00:40:02.650Z,80.00
2022-11-12T00:41:02.422Z,80.00
2022-11-12T00:42:02.393Z,79.00
2022-11-12T00:43:02.128Z,79.00
2022-11-12T00:44:02.031Z,79.00
2022-11-12T00:45:02.096Z,79.00
2022-11-12T00:46:02.010Z,79.00
2022-11-12T00:47:02.838Z,79.00
2022-11-12T00:48:02.845Z,80.00
2022-11-12T00:49:02.419Z,81.00
2022-11-12T00:50:02.396Z,80.00
2022-11-12T00:51:02.596Z,81.00
2022-11-12T00:52:02.610Z,81.00
2022-11-12T00:53:01.933Z,81.00
2022-11-12T00:54:02.484Z,81.00
2022-11-12T00:55:02.323Z,81.00
2022-11-12T00:56:02.358Z,81.00
2022-11-12T00:57:02.203Z,80.00
2022-11-12T00:58:02.259Z,80.00
2022-11-12T00:59:02.556Z,80.00
2022-11-12T01:00:02.182Z,81.00
2022-11-12T01:01:02.338Z,81.00
2022-11-12T01:02:02.173Z,81.00
2022-11-12T01:03:02.304Z,82.00
2022-11-12T01:04:02.218Z,82.00
2022-11-12T01:05:02.593Z,83.00
2022-11-12T01:06:02.544Z,83.00
2022-11-12T01:07:02.361Z,83.00
2022-11-12T01:08:02.734Z,83.00
2022-11-12T01:09:02.485Z,83.00
2022-11-12T01:10:02.273Z,83.00
2022-11-12T01:11:02.551Z,83.00
2022-11-12T01:12:02.538Z,83.00
2022-11-12T01:13:02.597Z,83.00
2022-11-12T01:14:02.403Z,83.00
2022-11-12T01:15:02.530Z,82.00
2022-11-12T01:16:02.566Z,82.00
2022-11-12T01:17:03.481Z,82.00
2022-11-12T01:18:03.150Z,82.00
2022-11-12T01:19:03.305Z,82.00
2022-11-12T01:20:03.233Z,81.00
2022-11-12T01:21:02.941Z,82.00
2022-11-12T01:22:02.472Z,82.00
2022-11-12T01:23:02.922Z,82.00
2022-11-12T01:24:02.458Z,81.00
2022-11-12T01:25:02.281Z,81.00
2022-11-12T01:26:02.828Z,80.00
2022-11-12T01:27:03.007Z,80.00
2022-11-12T01:28:03.401Z,80.00
2022-11-12T01:29:02.863Z,80.00
2022-11-12T01:30:03.380Z,81.00
2022-11-12T01:31:03.192Z,82.00
2022-11-12T01:32:02.849Z,82.00
2022-11-12T01:33:02.696Z,82.00
2022-11-12T01:34:02.857Z,82.00
2022-11-12T01:35:02.526Z,82.00
2022-11-12T01:36:02.783Z,82.00
2022-11-12T01:37:02.288Z,83.00
2022-11-12T01:38:02.178Z,83.00
2022-11-12T01:39:02.411Z,83.00
2022-11-12T01:40:02.580Z,83.00
2022-11-12T01:41:02.140Z,83.00
2022-11-12T01:42:02.676Z,83.00
2022-11-12T01:43:02.543Z,83.00
2022-11-12T01:44:02.298Z,83.00
2022-11-12T01:45:02.317Z,82.00
2022-11-12T01:46:02.845Z,82.00
2022-11-12T01:47:02.849Z,82.00
2022-11-12T01:48:02.675Z,82.00
2022-11-12T01:49:02.524Z,83.00
2022-11-12T01:50:02.902Z,82.00
2022-11-12T01:51:02.972Z,82.00
2022-11-12T01:52:02.542Z,81.00
2022-11-12T01:53:02.500Z,81.00
2022-11-12T01:54:02.216Z,81.00
2022-11-12T01:55:02.354Z,81.00
2022-11-12T01:56:02.162Z,81.00
2022-11-12T01:57:02.232Z,81.00
2022-11-12T01:58:02.238Z,81.00
2022-11-12T01:59:02.681Z,81.00
2022-11-12T02:00:02.427Z,82.00
2022-11-12T02:01:02.818Z,82.00
2022-11-12T02:02:03.062Z,81.00
2022-11-12T02:03:02.782Z,81.00
2022-11-12T02:04:03.190Z,81.00
2022-11-12T02:05:02.764Z,80.00
2022-11-12T02:06:02.660Z,80.00
2022-11-12T02:07:03.276Z,81.00
2022-11-12T02:08:03.468Z,81.00
2022-11-12T02:09:03.090Z,82.00
2022-11-12T02:10:02.728Z,82.00
2022-11-12T02:11:02.997Z,82.00
2022-11-12T02:12:03.337Z,81.00
2022-11-12T02:13:03.389Z,81.00
2022-11-12T02:14:03.128Z,80.00
2022-11-12T02:15:03.553Z,80.00
2022-11-12T02:16:03.298Z,80.00
2022-11-12T02:17:02.945Z,81.00
2022-11-12T02:18:02.606Z,82.00
2022-11-12T02:19:02.963Z,82.00
2022-11-12T02:20:02.536Z,82.00
2022-11-12T02:21:02.491Z,82.00
2022-11-12T02:22:02.686Z,82.00
2022-11-12T02:23:03.169Z,82.00
2022-11-12T02:24:02.755Z,82.00
2022-11-12T02:25:03.066Z,82.00
2022-11-12T02:26:02.725Z,83.00
2022-11-12T02:27:03.076Z,83.00
2022-11-12T02:28:02.952Z,83.00
2022-11-12T02:29:02.942Z,83.00
2022-11-12T02:30:03.220Z,83.00
2022-11-12T02:31:02.803Z,83.00
2022-11-12T02:32:03.346Z,83.00
2022-11-12T02:33:02.901Z,83.00
2022-11-12T02:34:03.077Z,83.00
2022-11-12T02:35:03.283Z,83.00
2022-11-12T02:36:03.246Z,83.00
2022-11-12T02:37:02.932Z,83.00
2022-11-12T02:38:02.461Z,83.00
2022-11-12T02:39:02.867Z,83.00
2022-11-12T02:40:02.562Z,82.00
2022-11-12T02:41:02.544Z,82.00
2022-11-12T02:42:02.962Z,82.00
2022-11-12T02:43:02.753Z,82.00
2022-11-12T02:44:02.438Z,82.00
2022-11-12T02:45:02.450Z,82.00
2022-11-12T02:46:02.504Z,82.00
2022-11-12T02:47:03.085Z,82.00
2022-11-12T02:48:02.625Z,82.00
2022-11-12T02:49:02.850Z,82.00
2022-11-12T02:50:02.645Z,82.00
2022-11-12T02:51:03.086Z,82.00
2022-11-12T02:52:03.359Z,82.00
2022-11-12T02:53:03.092Z,82.00
2022-11-12T02:54:03.213Z,82.00
2022-11-12T02:55:02.975Z,82.00
2022-11-12T02:56:03.147Z,82.00
2022-11-12T02:57:02.650Z,82.00
2022-11-12T02:58:02.507Z,82.00
2022-11-12T02:59:02.316Z,82.00
2022-11-12T03:00:02.225Z,81.00
2022-11-12T03:01:02.230Z,81.00
2022-11-12T03:02:02.686Z,80.00
2022-11-12T03:03:02.150Z,80.00
2022-11-12T03:04:02.379Z,80.00
2022-11-12T03:05:02.401Z,80.00
2022-11-12T03:06:02.325Z,80.00
2022-11-12T03:07:02.831Z,80.00
2022-11-12T03:08:02.697Z,80.00
2022-11-12T03:09:02.579Z,80.00
2022-11-12T03:10:02.329Z,80.00
2022-11-12T03:11:02.743Z,80.00
2022-11-12T03:12:03.137Z,79.00
2022-11-12T03:13:02.896Z,79.00
2022-11-12T03:14:02.946Z,79.00
2022-11-12T03:15:02.804Z,79.00
2022-11-12T03:16:03.241Z,79.00
2022-11-12T03:17:02.545Z,79.00
2022-11-12T03:18:02.382Z,79.00
2022-11-12T03:19:02.143Z,79.00
2022-11-12T03:20:02.148Z,79.00
2022-11-12T03:21:02.549Z,79.00
2022-11-12T03:22:02.988Z,78.00
2022-11-12T03:23:02.575Z,78.00
2022-11-12T03:24:02.552Z,78.00
2022-11-12T03:25:02.390Z,78.00
2022-11-12T03:26:02.961Z,78.00
2022-11-12T03:27:02.767Z,79.00
2022-11-12T03:28:02.751Z,79.00
2022-11-12T03:29:02.572Z,79.00
2022-11-12T03:30:03.026Z,79.00
2022-11-12T03:31:02.890Z,78.00
2022-11-12T03:32:02.865Z,78.00
2022-11-12T03:33:03.322Z,78.00
2022-11-12T03:34:02.873Z,78.00
2022-11-12T03:35:03.541Z,78.00
2022-11-12T03:36:02.727Z,79.00
2022-11-12T03:37:02.598Z,79.00
2022-11-12T03:38:02.150Z,78.00
2022-11-12T03:39:02.260Z,79.00
2022-11-12T03:40:02.205Z,79.00
2022-11-12T03:41:02.076Z,78.00
2022-11-12T03:42:03.081Z,79.00
2022-11-12T03:43:02.988Z,80.00
2022-11-12T03:44:02.970Z,80.00
2022-11-12T03:45:02.651Z,79.00
2022-11-12T03:46:03.025Z,80.00
2022-11-12T03:47:03.451Z,80.00
2022-11-12T03:48:03.312Z,80.00
2022-11-12T03:49:03.108Z,81.00
2022-11-12T03:50:03.381Z,82.00
2022-11-12T03:51:03.293Z,81.00
2022-11-12T03:52:02.076Z,82.00
2022-11-12T03:53:01.945Z,82.00
2022-11-12T03:54:02.360Z,82.00
2022-11-12T03:55:02.118Z,81.00
2022-11-12T03:56:02.390Z,81.00
2022-11-12T03:57:01.920Z,82.00
2022-11-12T03:58:02.381Z,82.00
2022-11-12T03:59:01.872Z,82.00
2022-11-12T04:00:02.012Z,82.00
2022-11-12T04:01:02.641Z,82.00
2022-11-12T04:02:02.182Z,82.00
2022-11-12T04:03:02.710Z,82.00
2022-11-12T04:04:02.146Z,82.00
2022-11-12T04:05:02.268Z,82.00
2022-11-12T04:06:02.760Z,82.00
2022-11-12T04:07:02.425Z,82.00
2022-11-12T04:08:02.864Z,82.00
2022-11-12T04:09:02.390Z,82.00
2022-11-12T04:10:02.792Z,82.00
2022-11-12T04:11:02.569Z,81.00
2022-11-12T04:12:02.333Z,81.00
2022-11-12T04:13:02.779Z,81.00
2022-11-12T04:14:02.647Z,81.00
2022-11-12T04:15:02.503Z,81.00
2022-11-12T04:16:02.419Z,81.00
2022-11-12T04:17:02.270Z,82.00
2022-11-12T04:18:02.081Z,81.00
2022-11-12T04:19:01.975Z,81.00
2022-11-12T04:20:01.934Z,81.00
2022-11-12T04:21:02.401Z,81.00
2022-11-12T04:22:03.136Z,80.00
2022-11-12T04:23:02.664Z,80.00
2022-11-12T04:24:02.924Z,80.00
2022-11-12T04:25:02.515Z,80.00
2022-11-12T04:26:02.891Z,80.00
2022-11-12T04:27:02.715Z,81.00
2022-11-12T04:28:02.574Z,82.00
2022-11-12T04:29:02.613Z,82.00
2022-11-12T04:30:02.665Z,83.00
2022-11-12T04:31:03.190Z,83.00
2022-11-12T04:32:02.856Z,83.00
2022-11-12T04:33:03.200Z,83.00
2022-11-12T04:34:02.762Z,83.00
2022-11-12T04:35:02.928Z,82.00
2022-11-12T04:36:02.815Z,82.00
2022-11-12T04:37:02.274Z,82.00
2022-11-12T04:38:02.493Z,81.00
2022-11-12T04:39:02.358Z,82.00
2022-11-12T04:40:02.312Z,82.00
2022-11-12T04:41:02.589Z,82.00
2022-11-12T04:42:02.642Z,82.00
2022-11-12T04:43:02.478Z,82.00
2022-11-12T04:44:02.218Z,83.00
2022-11-12T04:45:02.766Z,85.00
2022-11-12T04:46:02.848Z,85.00
2022-11-12T04:47:02.460Z,84.00
2022-11-12T04:48:02.396Z,84.00
2022-11-12T04:49:02.291Z,85.00
2022-11-12T04:50:02.905Z,85.00
2022-11-12T04:51:02.544Z,86.00
2022-11-12T04:52:02.290Z,85.00
2022-11-12T04:53:01.837Z,85.00
2022-11-12T04:54:01.790Z,85.00
2022-11-12T04:55:01.841Z,85.00
2022-11-12T04:56:02.197Z,85.00
2022-11-12T04:57:02.016Z,85.00
2022-11-12T04:58:02.423Z,85.00
2022-11-12T04:59:02.306Z,85.00
2022-11-12T05:00:02.379Z,84.00
2022-11-12T05:01:02.151Z,84.00
2022-11-12T05:02:02.865Z,84.00
2022-11-12T05:03:02.699Z,83.00
2022-11-12T05:04:02.689Z,83.00
2022-11-12T05:05:02.331Z,83.00
2022-11-12T05:06:02.780Z,82.00
2022-11-12T05:07:02.853Z,82.00
2022-11-12T05:08:02.719Z,82.00
2022-11-12T05:09:03.205Z,83.00
2022-11-12T05:10:02.672Z,83.00
2022-11-12T05:11:03.101Z,83.00
2022-11-12T05:12:03.307Z,83.00
2022-11-12T05:13:02.856Z,83.00
2022-11-12T05:14:02.785Z,83.00
2022-11-12T05:15:03.263Z,83.00
2022-11-12T05:16:02.726Z,83.00
2022-11-12T05:17:03.130Z,83.00
2022-11-12T05:18:03.523Z,83.00
2022-11-12T05:19:03.040Z,83.00
2022-11-12T05:20:03.351Z,82.00
2022-11-12T05:21:03.588Z,82.00
2022-11-12T05:22:02.451Z,82.00
2022-11-12T05:23:07.360Z,82.00
2022-11-12T05:24:02.621Z,81.00
2022-11-12T05:25:02.122Z,81.00
2022-11-12T05:26:02.238Z,81.00
2022-11-12T05:27:02.442Z,81.00
2022-11-12T05:28:02.924Z,81.00
2022-11-12T05:29:07.564Z,81.00
2022-11-12T05:30:02.689Z,82.00
2022-11-12T05:31:02.572Z,81.00
2022-11-12T05:32:03.005Z,83.00
2022-11-12T05:33:03.365Z,82.00
2022-11-12T05:34:02.962Z,82.00
2022-11-12T05:35:03.290Z,81.00
2022-11-12T05:36:03.292Z,81.00
2022-11-12T05:37:03.157Z,81.00
2022-11-12T05:38:02.966Z,81.00
2022-11-12T05:39:03.407Z,81.00
2022-11-12T05:40:03.143Z,81.00
2022-11-12T05:41:02.903Z,81.00
2022-11-12T05:42:15.603Z,82.00
2022-11-12T05:43:03.305Z,82.00
2022-11-12T05:44:02.885Z,82.00
2022-11-12T05:45:03.102Z,82.00
2022-11-12T05:46:03.539Z,81.00
2022-11-12T05:47:02.458Z,81.00
2022-11-12T05:48:02.605Z,81.00
2022-11-12T05:49:02.815Z,81.00
2022-11-12T05:50:02.412Z,81.00
2022-11-12T05:51:17.503Z,81.00
2022-11-12T05:52:02.800Z,81.00
2022-11-12T05:53:02.367Z,80.00
2022-11-12T05:54:02.864Z,80.00
2022-11-12T05:55:02.849Z,80.00
2022-11-12T05:56:02.612Z,80.00
2022-11-12T05:57:03.067Z,80.00
2022-11-12T05:58:02.786Z,80.00
2022-11-12T05:59:03.195Z,80.00
2022-11-12T06:00:02.802Z,80.00
2022-11-12T06:01:03.258Z,80.00
2022-11-12T06:02:02.771Z,80.00
2022-11-12T06:03:02.785Z,80.00
2022-11-12T06:04:02.551Z,80.00
2022-11-12T06:05:03.024Z,81.00
2022-11-12T06:06:02.708Z,82.00
2022-11-12T06:07:03.485Z,82.00
2022-11-12T06:08:03.503Z,83.00
2022-11-12T06:09:02.760Z,83.00
2022-11-12T06:10:03.193Z,83.00
2022-11-12T06:11:03.026Z,83.00
2022-11-12T06:12:02.591Z,84.00
2022-11-12T06:13:02.494Z,84.00
2022-11-12T06:14:02.682Z,84.00
2022-11-12T06:15:02.510Z,84.00
2022-11-12T06:16:02.720Z,84.00
2022-11-12T06:17:03.334Z,84.00
2022-11-12T06:18:02.927Z,84.00
2022-11-12T06:19:03.061Z,84.00
2022-11-12T06:20:02.908Z,84.00
2022-11-12T06:21:03.211Z,84.00
2022-11-12T06:22:02.271Z,84.00
2022-11-12T06:23:02.852Z,84.00
2022-11-12T06:24:02.678Z,84.00
2022-11-12T06:25:02.895Z,84.00
2022-11-12T06:26:02.492Z,84.00
2022-11-12T06:27:02.517Z,84.00
2022-11-12T06:28:03.011Z,84.00
2022-11-12T06:29:03.054Z,84.00
2022-11-12T06:30:03.089Z,84.00
2022-11-12T06:31:02.651Z,83.00
2022-11-12T06:32:03.078Z,83.00
2022-11-12T06:33:03.221Z,83.00
2022-11-12T06:34:02.996Z,83.00
2022-11-12T06:35:02.583Z,83.00
2022-11-12T06:36:03.304Z,83.00
2022-11-12T06:37:02.071Z,83.00
2022-11-12T06:38:02.020Z,83.00
2022-11-12T06:39:02.517Z,83.00
2022-11-12T06:40:02.202Z,83.00
2022-11-12T06:41:02.285Z,83.00
2022-11-12T06:42:02.811Z,83.00
2022-11-12T06:43:02.755Z,82.00
2022-11-12T06:44:02.881Z,82.00
2022-11-12T06:45:02.519Z,82.00
2022-11-12T06:46:02.268Z,82.00
2022-11-12T06:47:02.524Z,82.00
2022-11-12T06:48:02.125Z,82.00
2022-11-12T06:49:02.483Z,82.00
2022-11-12T06:50:02.129Z,82.00
2022-11-12T06:51:02.068Z,82.00
2022-11-12T06:52:02.303Z,82.00
2022-11-12T06:53:02.541Z,82.00
2022-11-12T06:54:02.432Z,82.00
2022-11-12T06:55:02.220Z,82.00
2022-11-12T06:56:02.198Z,82.00
2022-11-12T06:57:02.749Z,82.00
2022-11-12T06:58:02.725Z,82.00
2022-11-12T06:59:02.454Z,82.00
2022-11-12T07:00:02.240Z,82.00
2022-11-12T07:01:05.750Z,82.00
2022-11-12T07:02:02.838Z,82.00
2022-11-12T07:03:02.455Z,82.00
2022-11-12T07:04:02.356Z,82.00
2022-11-12T07:05:02.148Z,82.00
2022-11-12T07:06:02.715Z,82.00
2022-11-12T07:07:06.667Z,82.00
2022-11-12T07:08:02.837Z,82.00
2022-11-12T07:09:02.928Z,82.00
2022-11-12T07:10:02.979Z,82.00
2022-11-12T07:11:02.902Z,82.00
2022-11-12T07:12:02.572Z,82.00
2022-11-12T07:13:02.426Z,82.00
2022-11-12T07:14:02.276Z,83.00
2022-11-12T07:15:02.235Z,82.00
2022-11-12T07:16:02.733Z,82.00
2022-11-12T07:17:02.799Z,82.00
2022-11-12T07:18:03.037Z,82.00
2022-11-12T07:19:03.166Z,83.00
2022-11-12T07:20:04.131Z,83.00
2022-11-12T07:21:02.866Z,83.00
2022-11-12T07:22:02.787Z,83.00
2022-11-12T07:23:03.384Z,85.00
2022-11-12T07:24:03.005Z,85.00
2022-11-12T07:25:03.337Z,85.00
2022-11-12T07:26:03.151Z,86.00
2022-11-12T07:27:02.171Z,86.00
2022-11-12T07:28:02.542Z,86.00
2022-11-12T07:29:02.409Z,86.00
2022-11-12T07:30:02.193Z,87.00
2022-11-12T07:31:02.252Z,87.00
2022-11-12T07:32:02.398Z,87.00
2022-11-12T07:33:02.422Z,87.00
2022-11-12T07:34:02.425Z,87.00
2022-11-12T07:35:02.359Z,87.00
2022-11-12T07:36:02.306Z,87.00
2022-11-12T07:37:02.378Z,88.00
2022-11-12T07:38:02.860Z,88.00
2022-11-12T07:39:02.726Z,88.00
2022-11-12T07:40:02.567Z,88.00
2022-11-12T07:41:02.498Z,88.00
2022-11-12T07:42:02.751Z,88.00
2022-11-12T07:43:02.690Z,88.00
2022-11-12T07:44:02.745Z,88.00
2022-11-12T07:45:02.895Z,87.00
2022-11-12T07:46:09.053Z,87.00
2022-11-12T07:47:02.747Z,87.00
2022-11-12T07:48:02.765Z,87.00
2022-11-12T07:49:02.733Z,86.00
2022-11-12T07:50:02.671Z,86.00
2022-11-12T07:51:02.549Z,86.00
2022-11-12T07:52:02.223Z,86.00
2022-11-12T07:53:02.721Z,86.00
2022-11-12T07:54:02.389Z,87.00
2022-11-12T07:55:02.291Z,87.00
2022-11-12T07:56:02.220Z,86.00
2022-11-12T07:57:02.861Z,86.00
2022-11-12T07:58:02.566Z,86.00
2022-11-12T07:59:02.451Z,86.00
2022-11-12T08:00:02.521Z,86.00
2022-11-12T08:01:02.275Z,87.00
2022-11-12T08:02:02.934Z,86.00
2022-11-12T08:03:03.291Z,87.00
2022-11-12T08:04:03.178Z,87.00
2022-11-12T08:05:06.144Z,87.00
2022-11-12T08:06:03.206Z,87.00
2022-11-12T08:07:03.172Z,87.00
2022-11-12T08:08:03.653Z,87.00
2022-11-12T08:09:03.085Z,87.00
2022-11-12T08:10:03.338Z,87.00
2022-11-12T08:11:03.234Z,87.00
2022-11-12T08:12:02.961Z,87.00
2022-11-12T08:13:02.586Z,87.00
2022-11-12T08:14:02.544Z,87.00
2022-11-12T08:15:02.794Z,87.00
2022-11-12T08:16:02.560Z,87.00
2022-11-12T08:17:03.194Z,87.00
2022-11-12T08:18:03.079Z,87.00
2022-11-12T08:19:03.393Z,87.00
2022-11-12T08:20:03.127Z,87.00
2022-11-12T08:21:03.636Z,87.00
2022-11-12T08:22:02.558Z,87.00
2022-11-12T08:23:02.877Z,88.00
2022-11-12T08:24:02.577Z,87.00
2022-11-12T08:25:02.451Z,87.00
2022-11-12T08:26:02.675Z,87.00
2022-11-12T08:27:02.806Z,87.00
2022-11-12T08:28:02.675Z,86.00
2022-11-12T08:29:06.997Z,87.00
2022-11-12T08:30:02.540Z,86.00
2022-11-12T08:31:03.034Z,86.00
2022-11-12T08:32:03.100Z,87.00
2022-11-12T08:33:03.071Z,86.00
2022-11-12T08:34:02.850Z,86.00
2022-11-12T08:35:02.729Z,87.00
2022-11-12T08:36:02.711Z,87.00
2022-11-12T08:37:03.004Z,87.00
2022-11-12T08:38:03.329Z,87.00
2022-11-12T08:39:03.220Z,86.00
2022-11-12T08:40:03.076Z,86.00
2022-11-12T08:41:02.983Z,86.00
2022-11-12T08:42:03.166Z,86.00
2022-11-12T08:43:02.987Z,85.00
2022-11-12T08:44:08.275Z,85.00
2022-11-12T08:45:03.364Z,85.00
2022-11-12T08:46:03.339Z,85.00
2022-11-12T08:47:02.932Z,86.00
2022-11-12T08:48:03.289Z,85.00
2022-11-12T08:49:03.355Z,85.00
2022-11-12T08:50:03.208Z,85.00
2022-11-12T08:51:03.158Z,85.00
2022-11-12T08:52:02.721Z,85.00
2022-11-12T08:53:02.573Z,85.00
2022-11-12T08:54:02.780Z,85.00
2022-11-12T08:55:02.731Z,85.00
2022-11-12T08:56:02.518Z,86.00
2022-11-12T08:57:02.817Z,86.00
2022-11-12T08:58:02.554Z,86.00
2022-11-12T08:59:07.054Z,86.00
2022-11-12T09:00:02.444Z,86.00
2022-11-12T09:01:02.492Z,86.00
2022-11-12T09:02:03.073Z,86.00
2022-11-12T09:03:02.945Z,87.00
2022-11-12T09:04:02.939Z,86.00
2022-11-12T09:05:02.812Z,86.00
2022-11-12T09:06:02.722Z,87.00
2022-11-12T09:07:02.924Z,86.00
2022-11-12T09:08:03.216Z,86.00
2022-11-12T09:09:03.061Z,86.00
2022-11-12T09:10:03.252Z,86.00
2022-11-12T09:11:02.938Z,85.00
2022-11-12T09:12:10.459Z,86.00
2022-11-12T09:13:02.685Z,85.00
2022-11-12T09:14:02.610Z,85.00
2022-11-12T09:15:35.627Z,85.00
2022-11-12T09:16:02.830Z,85.00
2022-11-12T09:17:03.056Z,85.00
2022-11-12T09:18:02.956Z,85.00
2022-11-12T09:19:02.977Z,86.00
2022-11-12T09:20:02.795Z,86.00
2022-11-12T09:21:02.690Z,86.00
2022-11-12T09:22:03.135Z,85.00
2022-11-12T09:23:03.390Z,85.00
2022-11-12T09:24:03.320Z,85.00
2022-11-12T09:25:03.733Z,84.00
2022-11-12T09:26:03.495Z,84.00
2022-11-12T09:27:02.671Z,84.00
2022-11-12T09:28:02.766Z,84.00
2022-11-12T09:29:02.589Z,83.00
2022-11-12T09:30:02.745Z,83.00
2022-11-12T09:31:02.810Z,83.00
2022-11-12T09:32:03.407Z,83.00
2022-11-12T09:33:03.218Z,83.00
2022-11-12T09:34:03.534Z,83.00
2022-11-12T09:35:03.225Z,83.00
2022-11-12T09:36:03.419Z,83.00
2022-11-12T09:37:02.796Z,83.00
2022-11-12T09:38:02.835Z,82.00
2022-11-12T09:39:02.628Z,82.00
2022-11-12T09:40:02.602Z,82.00
2022-11-12T09:41:02.766Z,83.00
2022-11-12T09:42:03.349Z,83.00
2022-11-12T09:43:03.172Z,83.00
2022-11-12T09:44:03.140Z,83.00
2022-11-12T09:45:03.340Z,83.00
2022-11-12T09:46:28.693Z,82.00
2022-11-12T09:47:03.496Z,82.00
2022-11-12T09:48:03.046Z,82.00
2022-11-12T09:49:03.379Z,81.00
2022-11-12T09:50:03.206Z,81.00
2022-11-12T09:51:03.006Z,79.00
2022-11-12T09:52:03.280Z,80.00
2022-11-12T09:53:02.909Z,79.00
2022-11-12T09:54:02.700Z,79.00
2022-11-12T09:55:02.643Z,78.00
2022-11-12T09:56:02.860Z,78.00
2022-11-12T09:57:02.590Z,78.00
2022-11-12T09:58:02.791Z,78.00
2022-11-12T09:59:02.829Z,78.00
2022-11-12T10:00:02.932Z,78.00
2022-11-12T10:01:02.396Z,77.00
2022-11-12T10:02:02.495Z,77.00
2022-11-12T10:03:01.991Z,77.00
2022-11-12T10:04:02.039Z,77.00
2022-11-12T10:05:01.972Z,77.00
2022-11-12T10:06:05.935Z,78.00
2022-11-12T10:07:02.050Z,77.00
2022-11-12T10:08:02.215Z,78.00
2022-11-12T10:09:02.650Z,79.00
2022-11-12T10:10:02.438Z,78.00
2022-11-12T10:11:02.439Z,78.00
2022-11-12T10:12:04.555Z,78.00
2022-11-12T10:13:03.002Z,77.00
2022-11-12T10:14:03.040Z,77.00
2022-11-12T10:15:02.876Z,76.00
2022-11-12T10:16:02.467Z,76.00
2022-11-12T10:17:02.993Z,76.00
2022-11-12T10:18:02.735Z,76.00
2022-11-12T10:19:02.893Z,75.00
2022-11-12T10:20:02.932Z,76.00
2022-11-12T10:21:02.608Z,76.00
2022-11-12T10:22:01.985Z,76.00
2022-11-12T10:23:01.878Z,76.00
2022-11-12T10:24:02.088Z,75.00
2022-11-12T10:25:02.078Z,75.00
2022-11-12T10:26:02.140Z,75.00
2022-11-12T10:27:02.324Z,75.00
2022-11-12T10:28:02.592Z,75.00
2022-11-12T10:29:02.381Z,75.00
2022-11-12T10:30:02.409Z,75.00
2022-11-12T10:31:02.408Z,74.00
2022-11-12T10:32:02.903Z,73.00
2022-11-12T10:33:02.679Z,74.00
2022-11-12T10:34:02.574Z,74.00
2022-11-12T10:35:02.740Z,74.00
2022-11-12T10:36:02.756Z,74.00
2022-11-12T10:37:02.633Z,74.00
2022-11-12T10:38:02.856Z,74.00
2022-11-12T10:39:02.922Z,74.00
2022-11-12T10:40:03.228Z,74.00
2022-11-12T10:41:06.798Z,74.00
2022-11-12T10:42:02.039Z,74.00
2022-11-12T10:43:02.300Z,73.00
2022-11-12T10:44:02.227Z,74.00
2022-11-12T10:45:02.375Z,74.00
2022-11-12T10:46:02.794Z,73.00
2022-11-12T10:47:02.426Z,73.00
2022-11-12T10:48:02.801Z,74.00
2022-11-12T10:49:02.867Z,73.00
2022-11-12T10:50:02.583Z,73.00
2022-11-12T10:51:03.011Z,73.00
2022-11-12T10:52:02.112Z,73.00
2022-11-12T10:53:02.756Z,72.00
2022-11-12T10:54:02.509Z,72.00
2022-11-12T10:55:02.517Z,72.00
2022-11-12T10:56:02.643Z,72.00
2022-11-12T10:57:02.496Z,72.00
2022-11-12T10:58:02.388Z,72.00
2022-11-12T10:59:02.366Z,72.00
2022-11-12T11:00:02.457Z,73.00
2022-11-12T11:01:02.853Z,72.00
2022-11-12T11:02:02.561Z,72.00
2022-11-12T11:03:02.575Z,73.00
2022-11-12T11:04:02.670Z,72.00
2022-11-12T11:05:02.819Z,73.00
2022-11-12T11:06:02.671Z,73.00
2022-11-12T11:07:02.664Z,73.00
2022-11-12T11:08:02.944Z,72.00
2022-11-12T11:09:02.968Z,72.00
2022-11-12T11:10:02.998Z,73.00
2022-11-12T11:11:02.920Z,72.00
2022-11-12T11:12:03.043Z,72.00
2022-11-12T11:13:02.949Z,72.00
2022-11-12T11:14:02.972Z,73.00
2022-11-12T11:15:03.183Z,72.00
2022-11-12T11:16:03.196Z,71.00
2022-11-12T11:17:03.287Z,72.00
2022-11-12T11:18:03.307Z,72.00
2022-11-12T11:19:03.017Z,72.00
2022-11-12T11:20:03.542Z,71.00
2022-11-12T11:21:03.338Z,72.00
2022-11-12T11:22:03.228Z,72.00
2022-11-12T11:23:03.285Z,71.00
2022-11-12T11:24:03.248Z,71.00
2022-11-12T11:25:03.162Z,71.00
2022-11-12T11:26:03.742Z,71.00
2022-11-12T11:27:02.513Z,71.00
2022-11-12T11:28:02.539Z,71.00
2022-11-12T11:29:02.766Z,71.00
2022-11-12T11:30:02.783Z,70.00
2022-11-12T11:31:02.422Z,70.00
2022-11-12T11:32:02.959Z,69.00
2022-11-12T11:33:03.397Z,70.00
2022-11-12T11:34:03.121Z,70.00
2022-11-12T11:35:02.944Z,71.00
2022-11-12T11:36:03.219Z,70.00
2022-11-12T11:37:03.159Z,70.00
2022-11-12T11:38:03.277Z,70.00
2022-11-12T11:39:03.359Z,70.00
2022-11-12T11:40:03.518Z,69.00
2022-11-12T11:41:03.543Z,69.00
2022-11-12T11:42:03.207Z,69.00
2022-11-12T11:43:03.212Z,69.00
2022-11-12T11:44:03.705Z,67.00
2022-11-12T11:45:03.562Z,68.00
2022-11-12T11:46:03.407Z,68.00
2022-11-12T11:47:02.826Z,68.00
2022-11-12T11:48:02.911Z,70.00
2022-11-12T11:49:02.626Z,71.00
2022-11-12T11:50:02.580Z,69.00
2022-11-12T11:51:02.775Z,67.00
2022-11-12T11:52:03.686Z,66.00
2022-11-12T11:53:03.641Z,67.00
2022-11-12T11:54:03.586Z,67.00
2022-11-12T11:55:03.773Z,68.00
2022-11-12T11:56:03.713Z,67.00
2022-11-12T11:57:03.076Z,67.00
2022-11-12T11:58:02.829Z,66.00
2022-11-12T11:59:02.854Z,66.00
2022-11-12T12:00:02.969Z,66.00
2022-11-12T12:01:03.015Z,66.00
2022-11-12T12:02:02.454Z,66.00
2022-11-12T12:03:02.640Z,66.00
2022-11-12T12:04:02.499Z,66.00
2022-11-12T12:05:02.527Z,66.00
2022-11-12T12:06:02.449Z,66.00
2022-11-12T12:07:02.898Z,66.00
2022-11-12T12:08:02.578Z,66.00
2022-11-12T12:09:02.319Z,67.00
2022-11-12T12:10:07.817Z,66.00
2022-11-12T12:11:09.968Z,66.00
2022-11-12T12:12:02.177Z,66.00
2022-11-12T12:13:02.188Z,67.00
2022-11-12T12:14:02.034Z,66.00
2022-11-12T12:15:02.121Z,66.00
2022-11-12T12:16:02.180Z,67.00
2022-11-12T12:17:02.763Z,66.00
2022-11-12T12:18:02.617Z,67.00
2022-11-12T12:19:02.992Z,67.00
2022-11-12T12:20:02.641Z,66.00
2022-11-12T12:21:02.481Z,65.00
2022-11-12T12:22:02.303Z,65.00
2022-11-12T12:23:02.556Z,65.00
2022-11-12T12:24:02.327Z,66.00
2022-11-12T12:25:02.255Z,65.00
2022-11-12T12:26:01.853Z,64.00
2022-11-12T12:27:02.465Z,64.00
2022-11-12T12:28:02.659Z,64.00
2022-11-12T12:29:02.709Z,64.00
2022-11-12T12:30:02.365Z,64.00
2022-11-12T12:31:02.381Z,65.00
2022-11-12T12:32:03.211Z,65.00
2022-11-12T12:33:03.167Z,64.00
2022-11-12T12:34:03.030Z,64.00
2022-11-12T12:35:02.733Z,64.00
2022-11-12T12:36:02.949Z,64.00
2022-11-12T12:37:03.167Z,64.00
2022-11-12T12:38:02.882Z,64.00
2022-11-12T12:39:03.136Z,64.00
2022-11-12T12:40:03.138Z,65.00
2022-11-12T12:41:03.152Z,65.00
2022-11-12T12:42:02.903Z,65.00
2022-11-12T12:43:02.906Z,64.00
2022-11-12T12:44:02.795Z,64.00
2022-11-12T12:45:02.995Z,64.00
2022-11-12T12:46:02.769Z,64.00
2022-11-12T12:47:03.113Z,63.00
2022-11-12T12:48:03.107Z,63.00
2022-11-12T12:49:02.731Z,64.00
2022-11-12T12:50:02.711Z,63.00
2022-11-12T12:51:02.744Z,64.00
2022-11-12T12:52:02.594Z,64.00